Time;durP1;ratioP1;P1;durP2;ratioP2;P2;SDS_P1;SDS_P2;PMS_P1;PMS_P2;Temp;Humidity;BMP_temperature;BMP_pressure;BME280_temperature;BME280_humidity;BME280_pressure;Samples;Min_cycle;Max_cycle;Signal;HPM_P1;HPM_P2
2022/01/22 00:01:31;;;;;;;8.02;3.83;;;21.00;52.80;;;;;;4941357;28;92620;-84
2022/01/22 00:03:57;;;;;;;7.32;3.72;;;21.00;52.70;;;;;;4949801;28;93264;-83
2022/01/22 00:06:22;;;;;;;8.30;4.60;;;21.00;52.80;;;;;;4949130;28;95271;-86
2022/01/22 00:08:48;;;;;;;8.73;3.92;;;21.00;52.70;;;;;;4951324;28;92537;-84
2022/01/22 00:11:14;;;;;;;6.85;3.47;;;20.90;52.70;;;;;;4949186;28;91931;-85
2022/01/22 00:16:23;;;;;;;7.80;3.67;;;20.90;52.70;;;;;;4949909;28;92696;-86
2022/01/22 00:18:49;;;;;;;8.48;4.25;;;20.90;52.60;;;;;;4950539;28;93866;-83
2022/01/22 00:21:15;;;;;;;9.48;4.38;;;20.90;52.60;;;;;;5057346;22;93114;-83
2022/01/22 00:23:47;;;;;;;8.40;4.05;;;20.90;52.60;;;;;;4951606;28;93100;-81
2022/01/22 00:26:15;;;;;;;9.25;4.35;;;20.90;52.50;;;;;;4951422;28;92287;-82
2022/01/22 00:28:41;;;;;;;8.20;3.83;;;20.90;52.50;;;;;;4939739;28;92921;-80
2022/01/22 00:31:06;;;;;;;6.32;3.42;;;20.90;52.60;;;;;;4932373;28;92330;-80
2022/01/22 00:33:32;;;;;;;6.10;3.30;;;20.90;52.40;;;;;;4933487;28;93634;-88
2022/01/22 00:35:58;;;;;;;5.10;3.30;;;20.90;52.30;;;;;;4933766;28;92723;-81
2022/01/22 00:38:23;;;;;;;5.75;3.53;;;20.90;52.30;;;;;;4931843;28;93068;-81
2022/01/22 00:40:51;;;;;;;9.20;3.45;;;20.90;52.30;;;;;;4931905;28;92390;-80
2022/01/22 00:43:18;;;;;;;7.22;3.60;;;20.90;52.30;;;;;;4914582;28;96588;-81
2022/01/22 00:45:44;;;;;;;8.20;4.15;;;20.90;52.30;;;;;;4931438;28;94757;-83
2022/01/22 00:48:09;;;;;;;6.88;3.70;;;20.90;52.20;;;;;;4932299;28;92417;-81
2022/01/22 00:50:35;;;;;;;6.15;3.67;;;20.90;52.20;;;;;;4931484;28;92543;-80
2022/01/22 00:53:00;;;;;;;5.97;3.92;;;20.90;52.30;;;;;;4931712;28;93162;-81
2022/01/22 00:55:26;;;;;;;5.65;3.35;;;20.80;52.30;;;;;;4931577;28;92207;-83
2022/01/22 00:57:52;;;;;;;7.45;3.50;;;20.80;52.20;;;;;;4931063;28;93963;-81
2022/01/22 01:00:18;;;;;;;6.93;3.30;;;20.80;52.20;;;;;;4932165;28;92057;-81
2022/01/22 01:02:45;;;;;;;8.02;4.05;;;20.80;52.10;;;;;;4931156;28;92514;-83
2022/01/22 01:05:11;;;;;;;6.90;3.38;;;20.80;52.10;;;;;;4931053;28;92713;-85
2022/01/22 01:07:46;;;;;;;9.45;3.67;;;20.80;51.80;;;;;;4929638;28;93617;-81
2022/01/22 01:10:15;;;;;;;7.22;3.78;;;20.80;51.80;;;;;;4930366;28;92621;-80
2022/01/22 01:12:41;;;;;;;6.80;3.45;;;20.80;51.80;;;;;;4930077;28;92897;-82
2022/01/22 01:34:03;;;;;;;5.57;3.33;;;20.70;51.50;;;;;;4930118;28;93317;-83
2022/01/22 01:36:28;;;;;;;;;;;20.70;51.50;;;;;;4931255;28;94904;-82
2022/01/22 01:39:00;;;;;;;5.85;3.42;;;20.70;51.50;;;;;;4931965;28;92463;-80
2022/01/22 01:41:35;;;;;;;6.80;3.35;;;20.70;52.10;;;;;;4930406;28;93105;-81
2022/01/22 01:44:01;;;;;;;6.60;3.80;;;20.70;51.40;;;;;;4929589;28;93149;-79
2022/01/22 01:46:30;;;;;;;5.82;3.03;;;20.70;51.40;;;;;;4929230;28;94249;-85
2022/01/22 01:48:57;;;;;;;5.57;3.47;;;20.70;51.40;;;;;;4930630;28;92273;-83
2022/01/22 01:51:25;;;;;;;6.22;2.95;;;20.70;51.30;;;;;;4930792;28;91641;-81
2022/01/22 01:53:59;;;;;;;5.80;3.37;;;20.70;51.40;;;;;;4929181;28;95029;-82
2022/01/22 01:59:15;;;;;;;6.75;3.35;;;20.70;51.20;;;;;;4930107;28;93981;-80
2022/01/22 02:01:42;;;;;;;5.90;3.17;;;20.70;51.40;;;;;;4929851;28;92413;-80
2022/01/22 02:04:10;;;;;;;6.43;2.97;;;20.70;51.30;;;;;;4929317;28;92796;-81
2022/01/22 02:06:37;;;;;;;6.68;3.45;;;20.70;51.20;;;;;;4911952;28;95330;-81
2022/01/22 02:09:07;;;;;;;6.10;3.17;;;20.60;51.30;;;;;;4929147;28;92111;-80
2022/01/22 02:11:34;;;;;;;5.65;3.17;;;20.60;51.20;;;;;;4930090;28;92663;-83
2022/01/22 02:14:07;;;;;;;6.50;3.13;;;20.60;51.20;;;;;;4931207;28;93152;-85
2022/01/22 02:24:54;;;;;;;5.90;3.53;;;20.60;51.00;;;;;;4930042;28;93271;-86
2022/01/22 02:27:20;;;;;;;5.95;3.33;;;20.60;51.10;;;;;;4931428;28;93399;-83
2022/01/22 02:29:46;;;;;;;4.07;2.78;;;20.60;51.10;;;;;;4912784;28;92180;-82
2022/01/22 02:34:57;;;;;;;5.97;3.45;;;20.60;50.90;;;;;;4929376;28;92746;-83
2022/01/22 02:37:30;;;;;;;5.22;3.40;;;20.60;50.90;;;;;;4929529;28;93540;-80
2022/01/22 02:40:10;;;;;;;5.95;3.28;;;20.60;51.00;;;;;;4930067;28;92670;-82
2022/01/22 02:42:36;;;;;;;5.32;2.83;;;20.50;50.80;;;;;;4930044;28;92213;-80
2022/01/22 02:45:07;;;;;;;5.78;3.00;;;20.60;51.00;;;;;;4929669;28;92554;-81
2022/01/22 02:47:42;;;;;;;4.70;3.00;;;20.60;50.90;;;;;;4929560;28;92764;-82
2022/01/22 02:50:08;;;;;;;6.18;2.65;;;20.50;51.00;;;;;;4911835;28;93638;-80
2022/01/22 02:52:34;;;;;;;6.10;3.10;;;20.50;51.10;;;;;;4928584;28;92855;-80
2022/01/22 02:55:00;;;;;;;6.65;3.42;;;20.50;51.00;;;;;;4929181;28;93885;-81
2022/01/22 02:57:26;;;;;;;4.63;2.72;;;20.50;51.00;;;;;;4929142;28;93470;-83
2022/01/22 02:59:52;;;;;;;4.55;2.78;;;20.50;51.10;;;;;;4929355;28;92554;-80
2022/01/22 03:02:18;;;;;;;5.50;3.03;;;20.50;51.00;;;;;;4929287;28;93107;-79
2022/01/22 03:04:44;;;;;;;5.75;3.10;;;20.50;50.90;;;;;;4928457;28;92531;-80
2022/01/22 03:07:10;;;;;;;4.45;3.00;;;20.50;50.90;;;;;;4929106;28;92088;-87
2022/01/22 03:09:42;;;;;;;5.43;2.72;;;20.50;50.90;;;;;;4930547;28;92839;-81
2022/01/22 03:22:25;;;;;;;5.35;2.97;;;20.40;50.70;;;;;;4929130;28;93939;-81
2022/01/22 03:27:21;;;;;;;5.97;3.05;;;20.40;50.80;;;;;;4929080;28;92918;-80
2022/01/22 03:27:39;;;;;;;4.43;2.80;;;20.50;50.80;;;;;;4927941;28;92381;-81
2022/01/22 03:30:06;;;;;;;4.95;2.88;;;20.40;50.90;;;;;;4928635;28;93025;-86
2022/01/22 03:32:38;;;;;;;3.85;2.50;;;20.40;50.70;;;;;;4929910;28;91259;-81
2022/01/22 03:35:25;;;;;;;4.78;2.80;;;20.40;50.60;;;;;;4929146;28;93074;-81
2022/01/22 03:37:54;;;;;;;4.60;2.88;;;20.50;50.60;;;;;;4911567;28;95400;-84
2022/01/22 03:40:24;;;;;;;4.88;2.70;;;20.40;50.80;;;;;;4929145;28;93046;-82
2022/01/22 03:42:51;;;;;;;5.38;3.30;;;20.40;51.20;;;;;;4929327;28;92391;-80
2022/01/22 03:45:18;;;;;;;5.32;3.10;;;20.40;50.60;;;;;;4928161;28;93180;-81
2022/01/22 03:47:44;;;;;;;5.30;2.83;;;20.40;50.50;;;;;;4927543;28;92657;-84
2022/01/22 03:50:12;;;;;;;4.00;2.90;;;20.40;50.70;;;;;;4929079;28;91987;-79
2022/01/22 03:52:38;;;;;;;4.95;2.90;;;20.40;50.50;;;;;;4928881;28;92327;-81
2022/01/22 03:55:08;;;;;;;5.20;3.00;;;20.40;50.50;;;;;;4927824;28;92903;-81
2022/01/22 03:57:33;;;;;;;5.28;2.70;;;20.30;50.20;;;;;;4928864;28;92453;-81
2022/01/22 03:59:59;;;;;;;3.90;2.40;;;20.30;50.60;;;;;;4928984;28;92801;-80
2022/01/22 04:05:04;;;;;;;3.33;2.40;;;20.30;50.50;;;;;;4928892;28;94148;-86
2022/01/22 04:10:14;;;;;;;4.30;2.80;;;20.40;50.70;;;;;;4930497;28;92444;-86
2022/01/22 04:15:09;;;;;;;3.55;2.58;;;20.30;50.50;;;;;;4929250;28;93309;-81
2022/01/22 04:25:35;;;;;;;5.63;2.78;;;20.30;50.50;;;;;;4928587;28;92713;-82
2022/01/22 04:28:00;;;;;;;3.78;2.35;;;20.30;50.30;;;;;;4927533;28;92450;-82
2022/01/22 04:30:28;;;;;;;3.25;2.55;;;20.30;50.50;;;;;;4928129;28;93028;-81
2022/01/22 04:32:54;;;;;;;4.47;2.70;;;20.30;50.50;;;;;;4927995;28;92587;-87
2022/01/22 04:35:22;;;;;;;4.88;2.88;;;20.30;50.40;;;;;;4927333;28;93618;-86
2022/01/22 04:37:49;;;;;;;3.55;2.67;;;20.30;50.40;;;;;;4926357;28;95086;-81
2022/01/22 04:40:15;;;;;;;4.68;2.58;;;20.30;50.40;;;;;;4930777;28;92686;-81
2022/01/22 04:42:42;;;;;;;4.68;2.42;;;20.20;50.30;;;;;;4930809;28;92756;-82
2022/01/22 04:55:39;;;;;;;5.35;2.67;;;20.20;50.20;;;;;;4929667;28;93467;-81
2022/01/22 04:58:06;;;;;;;3.88;2.40;;;20.20;50.30;;;;;;4913928;28;93499;-82
2022/01/22 05:00:45;;;;;;;3.85;2.42;;;20.20;50.10;;;;;;4914364;28;93176;-82
2022/01/22 05:03:11;;;;;;;4.97;2.55;;;20.20;50.20;;;;;;4929873;28;92043;-85
2022/01/22 05:05:37;;;;;;;4.18;2.65;;;20.20;50.20;;;;;;4930169;28;93240;-84
2022/01/22 05:08:03;;;;;;;4.35;2.50;;;20.20;50.20;;;;;;4932030;28;92956;-88
2022/01/22 05:10:28;;;;;;;3.65;2.47;;;20.20;50.10;;;;;;4933041;28;92879;-87
2022/01/22 05:12:55;;;;;;;4.00;2.72;;;20.20;50.00;;;;;;4932374;28;92029;-87
2022/01/22 05:15:21;;;;;;;4.85;2.55;;;20.20;50.10;;;;;;4930233;28;93014;-87
2022/01/22 05:17:48;;;;;;;3.67;2.33;;;20.20;50.20;;;;;;4931471;28;93048;-87
2022/01/22 05:20:30;;;;;;;3.63;2.50;;;20.20;50.10;;;;;;4929948;28;93687;-85
2022/01/22 05:23:03;;;;;;;5.10;2.75;;;20.20;50.10;;;;;;4930898;28;92073;-83
2022/01/22 05:25:35;;;;;;;4.05;2.33;;;20.20;50.10;;;;;;4930943;28;93151;-83
2022/01/22 05:28:13;;;;;;;4.50;2.83;;;20.20;50.20;;;;;;4930929;28;92471;-86
2022/01/22 05:38:29;;;;;;;2.95;2.13;;;20.20;50.10;;;;;;4930889;28;92025;-82
2022/01/22 05:40:54;;;;;;;3.33;2.30;;;20.10;50.00;;;;;;4930540;28;92962;-85
2022/01/22 05:43:20;;;;;;;3.15;2.13;;;20.10;50.00;;;;;;4929299;28;92438;-81
2022/01/22 05:45:48;;;;;;;3.75;2.50;;;20.10;50.00;;;;;;4928524;28;93853;-80
2022/01/22 05:48:21;;;;;;;3.67;2.60;;;20.10;50.10;;;;;;4929945;28;93157;-83
2022/01/22 05:50:54;;;;;;;4.10;2.38;;;20.10;49.90;;;;;;4930924;28;92740;-81
2022/01/22 06:01:10;;;;;;;5.18;2.60;;;20.10;50.00;;;;;;4929658;28;92477;-84
2022/01/22 06:03:43;;;;;;;4.82;2.50;;;20.10;50.60;;;;;;4930877;28;92014;-87
2022/01/22 06:06:10;;;;;;;3.88;2.60;;;20.10;50.00;;;;;;4930430;28;93015;-81
2022/01/22 06:08:44;;;;;;;2.97;2.42;;;20.10;49.90;;;;;;4929358;28;93295;-86
2022/01/22 06:11:11;;;;;;;5.20;2.40;;;20.00;49.90;;;;;;4929420;28;93982;-83
2022/01/22 06:13:44;;;;;;;3.65;2.55;;;20.10;49.90;;;;;;4930303;28;92305;-86
2022/01/22 06:16:14;;;;;;;5.15;2.50;;;20.00;48.40;;;;;;4913515;28;94830;-82
2022/01/22 06:18:40;;;;;;;2.45;2.20;;;20.00;49.70;;;;;;4929971;28;92768;-80
2022/01/22 06:21:09;;;;;;;4.18;2.58;;;20.00;49.70;;;;;;4929993;28;92952;-84
2022/01/22 06:23:35;;;;;;;3.90;2.28;;;20.10;49.70;;;;;;4929731;28;92830;-85
2022/01/22 06:26:00;;;;;;;3.25;2.30;;;20.20;50.00;;;;;;4929097;28;92708;-81
2022/01/22 06:28:41;;;;;;;;;;;;;;;;;;;;;
2022/01/22 06:31:07;;;;;;;4.15;2.58;;;20.20;50.10;;;;;;4928587;28;93030;-83
2022/01/22 06:33:33;;;;;;;4.80;2.60;;;20.20;51.00;;;;;;4928969;28;92615;-83
2022/01/22 06:35:59;;;;;;;3.22;2.15;;;20.30;50.50;;;;;;4911232;28;96361;-81
2022/01/22 06:38:25;;;;;;;3.17;2.33;;;20.30;50.80;;;;;;4927911;28;93687;-83
2022/01/22 06:43:35;;;;;;;4.40;3.00;;;20.40;50.80;;;;;;4929550;28;92026;-84
2022/01/22 06:46:00;;;;;;;3.70;2.47;;;20.50;51.00;;;;;;4929197;28;92813;-84
2022/01/22 06:48:26;;;;;;;4.75;2.80;;;20.50;50.30;;;;;;4928702;28;93378;-81
2022/01/22 06:50:53;;;;;;;6.10;3.50;;;20.60;49.90;;;;;;4928332;28;92941;-84
2022/01/22 06:53:18;;;;;;;6.47;2.97;;;20.60;49.80;;;;;;4929243;28;92320;-87
2022/01/22 06:55:51;;;;;;;9.20;3.00;;;20.60;49.90;;;;;;4927139;28;92680;-83
2022/01/22 06:58:16;;;;;;;3.97;2.50;;;20.60;50.20;;;;;;4927276;28;92750;-82
2022/01/22 07:00:44;;;;;;;4.75;2.50;;;20.60;50.10;;;;;;4925025;28;93433;-81
2022/01/22 07:03:10;;;;;;;6.32;2.63;;;20.70;50.10;;;;;;4928626;28;92845;-85
2022/01/22 07:05:36;;;;;;;5.75;3.28;;;20.70;49.80;;;;;;4928392;28;93102;-82
2022/01/22 07:08:01;;;;;;;3.85;2.80;;;20.70;50.00;;;;;;4928403;28;92358;-82
2022/01/22 07:10:27;;;;;;;7.40;2.78;;;20.70;49.90;;;;;;4928344;28;92674;-84
2022/01/22 07:12:53;;;;;;;5.82;2.78;;;20.70;49.80;;;;;;4927509;28;92846;-85
2022/01/22 07:15:20;;;;;;;4.25;3.08;;;20.70;49.60;;;;;;4910040;28;94523;-82
2022/01/22 07:17:46;;;;;;;4.80;3.15;;;20.70;49.80;;;;;;4928729;28;92481;-82
2022/01/22 07:20:18;;;;;;;3.60;2.70;;;20.70;49.70;;;;;;4928570;28;92968;-80
2022/01/22 07:23:00;;;;;;;5.85;3.08;;;20.70;49.70;;;;;;4927574;28;92646;-83
2022/01/22 07:25:26;;;;;;;3.85;3.13;;;20.70;49.50;;;;;;4927317;28;93708;-85
2022/01/22 07:27:52;;;;;;;3.63;3.00;;;20.70;49.40;;;;;;4926762;28;96330;-84
2022/01/22 07:30:18;;;;;;;3.92;2.88;;;20.70;49.20;;;;;;4928758;28;92749;-81
2022/01/22 07:32:44;;;;;;;3.72;2.78;;;20.70;49.50;;;;;;4928556;28;92276;-85
2022/01/22 07:35:26;;;;;;;4.13;2.75;;;20.70;49.50;;;;;;4927788;28;93741;-86
2022/01/22 07:37:51;;;;;;;53.72;11.60;;;20.60;50.50;;;;;;4927645;28;93053;-84
2022/01/22 07:40:17;;;;;;;20.52;6.20;;;20.70;50.10;;;;;;4927477;28;93214;-80
2022/01/22 07:42:43;;;;;;;16.15;5.85;;;20.60;49.70;;;;;;4931407;28;92145;-81
2022/01/22 07:45:09;;;;;;;12.95;5.10;;;20.70;50.30;;;;;;4927197;28;93465;-86
2022/01/22 07:47:35;;;;;;;14.85;5.25;;;20.70;49.70;;;;;;4928564;28;92707;-86
2022/01/22 07:50:02;;;;;;;16.20;5.35;;;20.70;49.70;;;;;;4928464;28;93338;-85
2022/01/22 07:52:28;;;;;;;14.70;5.75;;;20.70;50.30;;;;;;4928767;28;92831;-81
2022/01/22 07:54:53;;;;;;;20.15;5.60;;;20.70;49.30;;;;;;4928104;28;92865;-83
2022/01/22 07:57:19;;;;;;;24.30;7.78;;;20.70;49.70;;;;;;4927985;28;92726;-83
2022/01/22 07:59:44;;;;;;;19.60;7.68;;;20.70;48.20;;;;;;4928289;28;92732;-82
2022/01/22 08:02:11;;;;;;;19.73;6.13;;;20.70;48.40;;;;;;4927696;28;92615;-81
2022/01/22 08:04:36;;;;;;;17.95;6.30;;;20.80;49.20;;;;;;4927570;28;92955;-82
2022/01/22 08:07:05;;;;;;;19.58;6.20;;;20.80;48.90;;;;;;4927251;28;92226;-83
2022/01/22 08:09:31;;;;;;;24.27;6.53;;;20.80;48.70;;;;;;4925139;28;92607;-81
2022/01/22 08:11:56;;;;;;;21.48;6.15;;;20.80;48.50;;;;;;4927128;28;93211;-81
2022/01/22 08:14:22;;;;;;;17.38;5.90;;;20.80;48.80;;;;;;4928929;28;93952;-82
2022/01/22 08:16:57;;;;;;;19.40;6.25;;;20.80;49.10;;;;;;4929474;28;93850;-81
2022/01/22 08:19:23;;;;;;;28.85;6.13;;;20.80;49.20;;;;;;4928930;28;92375;-81
2022/01/22 08:21:49;;;;;;;34.08;7.60;;;20.80;49.70;;;;;;4930716;28;92571;-83
2022/01/22 08:24:15;;;;;;;36.92;9.38;;;20.80;49.90;;;;;;4929449;28;92802;-83
2022/01/22 08:26:47;;;;;;;40.50;7.90;;;20.80;50.20;;;;;;4929900;28;93731;-82
2022/01/22 08:29:13;;;;;;;35.53;8.32;;;20.80;50.10;;;;;;4930686;28;92457;-82
2022/01/22 08:37:09;;;;;;;31.85;8.50;;;20.80;50.10;;;;;;4929815;28;92894;-82
2022/01/22 08:39:34;;;;;;;27.75;6.88;;;20.80;50.30;;;;;;4929677;28;93900;-82
2022/01/22 08:42:00;;;;;;;43.10;11.10;;;20.80;50.40;;;;;;4930305;28;92018;-82
2022/01/22 08:44:25;;;;;;;31.02;8.70;;;20.80;50.20;;;;;;4929523;28;93142;-84
2022/01/22 08:46:51;;;;;;;31.65;8.43;;;20.80;50.60;;;;;;4927323;28;92666;-82
2022/01/22 08:49:17;;;;;;;35.05;8.90;;;20.80;50.50;;;;;;4929473;28;92942;-82
2022/01/22 08:51:43;;;;;;;30.20;9.23;;;20.80;50.70;;;;;;4929453;28;92231;-82
2022/01/22 08:54:10;;;;;;;37.17;9.70;;;20.80;51.00;;;;;;4928702;28;92667;-83
2022/01/22 08:56:38;;;;;;;31.30;8.65;;;20.80;51.00;;;;;;4928837;28;92698;-83
2022/01/22 08:59:04;;;;;;;33.55;9.70;;;20.80;51.00;;;;;;4930833;28;92544;-83
2022/01/22 09:01:29;;;;;;;28.73;8.00;;;20.80;51.00;;;;;;4930552;28;92717;-85
2022/01/22 09:03:56;;;;;;;31.45;9.15;;;20.90;50.80;;;;;;4867467;28;94210;-82
2022/01/22 09:06:22;;;;;;;38.13;9.70;;;20.90;51.20;;;;;;4929526;28;93817;-83
2022/01/22 09:08:50;;;;;;;27.25;7.97;;;20.90;51.10;;;;;;4929645;28;92901;-82
2022/01/22 09:11:18;;;;;;;30.50;8.83;;;20.90;51.20;;;;;;4929132;28;92481;-81
2022/01/22 09:13:44;;;;;;;21.63;7.68;;;20.90;51.30;;;;;;4930046;28;92915;-83
2022/01/22 09:16:10;;;;;;;29.23;7.85;;;20.90;51.40;;;;;;4911998;28;94914;-82
2022/01/22 09:18:45;;;;;;;41.55;9.20;;;20.90;51.30;;;;;;4932956;28;92590;-81
2022/01/22 09:21:10;;;;;;;28.52;8.30;;;20.90;51.10;;;;;;4932238;28;92183;-82
2022/01/22 09:23:36;;;;;;;26.73;7.88;;;20.90;51.40;;;;;;4925969;28;95533;-83
2022/01/22 09:26:02;;;;;;;29.55;8.20;;;20.90;51.60;;;;;;4928057;28;92863;-82
2022/01/22 09:28:30;;;;;;;27.88;9.00;;;20.90;51.70;;;;;;4929133;28;93700;-81
2022/01/22 09:30:57;;;;;;;24.40;7.88;;;20.90;51.90;;;;;;4927112;28;93953;-81
2022/01/22 09:33:22;;;;;;;30.25;8.90;;;20.90;51.90;;;;;;4928890;28;93640;-82
2022/01/22 09:35:48;;;;;;;30.05;9.43;;;20.90;52.10;;;;;;4929235;28;92609;-81
2022/01/22 09:38:14;;;;;;;27.33;8.95;;;20.90;51.70;;;;;;4929483;28;92725;-82
2022/01/22 09:40:39;;;;;;;21.35;8.00;;;20.90;51.90;;;;;;4928846;28;92491;-84
2022/01/22 09:43:05;;;;;;;24.13;7.88;;;20.90;52.10;;;;;;4928592;28;92838;-82
2022/01/22 09:45:31;;;;;;;27.33;8.57;;;20.90;52.30;;;;;;4911789;28;94771;-85
2022/01/22 09:47:59;;;;;;;24.40;8.55;;;20.90;52.50;;;;;;4929482;28;92518;-83
2022/01/22 09:50:26;;;;;;;27.15;8.85;;;20.90;52.50;;;;;;4928125;28;92531;-81
2022/01/22 09:52:52;;;;;;;32.80;8.60;;;20.90;52.60;;;;;;4928631;28;93643;-86
2022/01/22 09:55:21;;;;;;;23.23;7.82;;;20.90;53.00;;;;;;4929921;28;92690;-82
2022/01/22 09:57:47;;;;;;;23.55;8.60;;;20.90;52.60;;;;;;4929174;28;92018;-84
2022/01/22 10:00:19;;;;;;;22.23;9.23;;;20.90;53.00;;;;;;4911988;28;93268;-82
2022/01/22 10:02:50;;;;;;;21.88;8.52;;;20.90;52.10;;;;;;4910937;28;94777;-82
2022/01/22 10:05:37;;;;;;;21.48;7.65;;;20.90;52.00;;;;;;4927719;28;92653;-86
2022/01/22 10:08:31;;;;;;;23.35;8.38;;;20.90;52.60;;;;;;4928327;28;92466;-84
2022/01/22 10:11:01;;;;;;;19.88;8.48;;;20.90;52.40;;;;;;4926442;28;92005;-84
2022/01/22 10:13:52;;;;;;;19.00;6.65;;;20.90;51.70;;;;;;4928739;28;93061;-83
2022/01/22 10:16:23;;;;;;;17.77;6.95;;;20.90;53.60;;;;;;4928363;28;92990;-85
2022/01/22 10:19:24;;;;;;;117.20;28.90;;;20.90;52.40;;;;;;4928968;28;94236;-83
2022/01/22 10:21:56;;;;;;;90.50;25.75;;;20.90;53.00;;;;;;4923958;28;92910;-84
2022/01/22 10:24:37;;;;;;;88.70;25.13;;;20.90;50.90;;;;;;4926536;28;93135;-87
2022/01/22 10:27:39;;;;;;;98.07;28.90;;;20.90;51.00;;;;;;4927449;28;92747;-82
2022/01/22 10:30:07;;;;;;;108.65;30.13;;;20.90;51.80;;;;;;4927066;28;92324;-83
2022/01/22 10:32:50;;;;;;;78.22;24.08;;;20.90;52.20;;;;;;4927443;28;92715;-82
2022/01/22 10:35:27;;;;;;;66.32;20.23;;;20.90;52.40;;;;;;4926848;28;93961;-83
2022/01/22 10:37:57;;;;;;;67.82;20.70;;;20.90;52.70;;;;;;4928028;28;92300;-81
2022/01/22 10:40:27;;;;;;;61.15;17.92;;;20.90;52.80;;;;;;4928187;28;92373;-83
2022/01/22 10:43:12;;;;;;;59.92;19.88;;;20.90;53.10;;;;;;4927820;28;92483;-84
2022/01/22 10:45:41;;;;;;;54.40;17.50;;;20.90;54.50;;;;;;4924712;28;94079;-83
2022/01/22 10:48:21;;;;;;;59.45;19.42;;;20.90;53.90;;;;;;4926633;28;93327;-83
2022/01/22 10:51:21;;;;;;;60.83;19.55;;;20.90;55.00;;;;;;4926710;28;92599;-83
2022/01/22 10:53:57;;;;;;;57.17;18.02;;;20.90;53.20;;;;;;4928018;28;92652;-82
2022/01/22 10:56:24;;;;;;;56.08;18.25;;;21.00;51.60;;;;;;4910393;28;95696;-84
2022/01/22 10:58:58;;;;;;;51.33;17.33;;;21.00;52.50;;;;;;4926684;28;92434;-83
2022/01/22 11:01:28;;;;;;;52.92;17.98;;;20.90;53.10;;;;;;4927494;28;92509;-83
2022/01/22 11:04:09;;;;;;;48.08;17.73;;;21.00;54.10;;;;;;4927437;28;92181;-83
2022/01/22 11:06:35;;;;;;;51.83;18.58;;;21.00;53.70;;;;;;4927037;28;93160;-82
2022/01/22 11:09:11;;;;;;;48.65;16.92;;;21.00;53.60;;;;;;4908948;28;95495;-83
2022/01/22 11:11:40;;;;;;;55.72;16.27;;;20.90;53.80;;;;;;4908777;28;93714;-84
2022/01/22 11:14:08;;;;;;;47.80;16.42;;;20.90;54.30;;;;;;4927577;28;92144;-81
2022/01/22 11:16:36;;;;;;;48.97;18.13;;;20.90;54.40;;;;;;4909208;28;96874;-86
2022/01/22 11:19:03;;;;;;;49.45;18.13;;;20.90;53.30;;;;;;4928729;28;93292;-83
2022/01/22 11:21:30;;;;;;;40.83;15.25;;;20.90;53.30;;;;;;4928762;28;92995;-86
2022/01/22 11:23:56;;;;;;;44.67;15.10;;;20.90;53.90;;;;;;4928189;28;92889;-83
2022/01/22 11:26:22;;;;;;;42.67;15.88;;;21.00;54.10;;;;;;4925722;28;92610;-82
2022/01/22 11:28:51;;;;;;;45.45;14.55;;;21.00;54.20;;;;;;4927573;28;92911;-85
2022/01/22 11:31:18;;;;;;;47.15;16.15;;;21.00;54.30;;;;;;4926341;28;93246;-83
2022/01/22 11:33:47;;;;;;;74.32;21.15;;;21.00;54.50;;;;;;4924904;28;92870;-83
2022/01/22 11:36:41;;;;;;;51.33;18.27;;;21.00;54.60;;;;;;4925247;28;93782;-82
2022/01/22 11:39:17;;;;;;;47.80;16.95;;;21.00;54.40;;;;;;4924367;28;96848;-82
2022/01/22 11:41:58;;;;;;;44.05;16.48;;;21.00;54.20;;;;;;4927015;28;92795;-84
2022/01/22 11:44:36;;;;;;;45.05;17.08;;;21.00;54.30;;;;;;4908886;28;92543;-83
2022/01/22 11:47:13;;;;;;;46.65;15.30;;;21.00;54.20;;;;;;4927919;28;93101;-84
2022/01/22 11:49:40;;;;;;;44.80;15.60;;;21.00;54.10;;;;;;4932577;28;92698;-82
2022/01/22 11:52:11;;;;;;;49.63;16.63;;;21.00;54.00;;;;;;4915197;28;92756;-83
2022/01/22 11:55:01;;;;;;;47.75;16.63;;;21.00;53.90;;;;;;4932837;28;91308;-86
2022/01/22 11:57:31;;;;;;;46.15;15.65;;;21.00;53.90;;;;;;4907167;28;94908;-83
2022/01/22 12:00:29;;;;;;;43.30;14.90;;;21.00;53.60;;;;;;4932977;28;92891;-82
2022/01/22 12:03:06;;;;;;;44.58;15.05;;;21.00;53.90;;;;;;4932749;28;93794;-83
2022/01/22 12:05:32;;;;;;;45.17;13.93;;;21.00;53.70;;;;;;4932563;28;92829;-83
2022/01/22 12:07:59;;;;;;;41.58;14.98;;;21.00;53.90;;;;;;4932743;28;96040;-84
2022/01/22 12:10:39;;;;;;;40.40;15.55;;;21.00;53.70;;;;;;4933747;28;92626;-83
2022/01/22 12:16:12;;;;;;;38.83;14.48;;;21.00;53.70;;;;;;4934032;28;91864;-82
2022/01/22 12:18:46;;;;;;;37.38;14.55;;;21.00;53.10;;;;;;4932912;28;93648;-82
2022/01/22 12:21:39;;;;;;;33.53;13.88;;;21.00;53.10;;;;;;4933724;28;93971;-85
2022/01/22 12:24:10;;;;;;;39.35;14.27;;;21.00;53.10;;;;;;4927481;28;92991;-82
2022/01/22 12:26:48;;;;;;;35.58;14.20;;;21.00;53.20;;;;;;4914471;28;92530;-82
2022/01/22 12:29:35;;;;;;;35.60;14.27;;;21.00;54.20;;;;;;4928642;28;95028;-83
2022/01/22 12:32:29;;;;;;;40.83;15.93;;;21.00;51.60;;;;;;4931116;28;93718;-83
2022/01/22 12:34:58;;;;;;;40.47;14.80;;;20.90;51.80;;;;;;4910350;28;93277;-86
2022/01/22 12:37:25;;;;;;;36.63;14.88;;;21.00;51.30;;;;;;4933733;28;92846;-85
2022/01/22 12:39:54;;;;;;;33.38;13.50;;;21.00;51.80;;;;;;4933317;28;93284;-86
2022/01/22 12:42:30;;;;;;;30.33;12.50;;;21.00;52.30;;;;;;4933600;28;92827;-86
2022/01/22 12:45:08;;;;;;;42.35;14.52;;;21.00;52.80;;;;;;4932962;28;92604;-84
2022/01/22 12:47:36;;;;;;;35.03;13.55;;;21.00;51.70;;;;;;4934733;28;92315;-83
2022/01/22 12:50:12;;;;;;;35.35;13.25;;;21.00;51.80;;;;;;4933490;28;93798;-86
2022/01/22 12:52:41;;;;;;;31.35;12.82;;;21.00;52.00;;;;;;4916903;28;95574;-83
2022/01/22 12:55:24;;;;;;;34.08;14.15;;;21.00;51.90;;;;;;4931638;28;93845;-82
2022/01/22 12:57:50;;;;;;;30.40;12.27;;;21.00;52.10;;;;;;4931593;28;92563;-81
2022/01/22 13:00:17;;;;;;;39.75;12.80;;;21.00;52.40;;;;;;4910069;28;95330;-81
2022/01/22 13:02:57;;;;;;;32.05;12.40;;;21.00;52.10;;;;;;4928882;28;93073;-86
2022/01/22 13:05:25;;;;;;;29.60;12.00;;;21.00;52.20;;;;;;4929639;28;92541;-81
2022/01/22 13:08:08;;;;;;;33.90;12.02;;;21.00;52.60;;;;;;4921384;28;92705;-82
2022/01/22 13:10:43;;;;;;;29.70;12.55;;;21.00;53.30;;;;;;4927962;28;92929;-83
2022/01/22 13:13:14;;;;;;;31.23;12.90;;;21.10;52.40;;;;;;4928312;28;93204;-83
2022/01/22 13:15:40;;;;;;;30.13;12.60;;;21.00;52.10;;;;;;4928423;28;92604;-84
2022/01/22 13:18:06;;;;;;;35.65;13.35;;;21.00;52.80;;;;;;4928911;28;92713;-83
2022/01/22 13:20:34;;;;;;;32.42;12.18;;;21.00;52.50;;;;;;4928097;28;94593;-81
2022/01/22 13:23:11;;;;;;;38.75;13.13;;;21.00;52.40;;;;;;4929648;28;93315;-84
2022/01/22 13:25:38;;;;;;;29.70;11.57;;;21.00;52.50;;;;;;4928564;28;92637;-87
2022/01/22 13:28:13;;;;;;;33.10;12.30;;;21.10;52.70;;;;;;4928477;28;92389;-83
2022/01/22 13:30:47;;;;;;;29.13;12.27;;;21.00;52.40;;;;;;4911985;28;96197;-80
2022/01/22 13:33:19;;;;;;;27.50;11.77;;;21.10;52.50;;;;;;4927646;28;93107;-86
2022/01/22 13:36:00;;;;;;;30.73;12.02;;;21.10;52.60;;;;;;4927956;28;91962;-82
2022/01/22 13:49:05;;;;;;;30.05;12.00;;;21.10;52.90;;;;;;4927936;28;92964;-81
2022/01/22 13:51:32;;;;;;;28.40;10.68;;;21.10;53.10;;;;;;4924391;28;93571;-81
2022/01/22 13:54:01;;;;;;;25.08;11.00;;;21.10;52.90;;;;;;4928361;28;92681;-87
2022/01/22 13:56:48;;;;;;;26.87;9.43;;;21.10;52.70;;;;;;4929286;28;92944;-84
2022/01/22 13:59:22;;;;;;;24.98;11.05;;;21.10;53.10;;;;;;4929592;28;92457;-82
2022/01/22 14:02:08;;;;;;;20.00;10.48;;;21.10;52.80;;;;;;4928482;28;94037;-83
2022/01/22 14:04:46;;;;;;;30.38;11.45;;;21.10;52.60;;;;;;4929104;28;92357;-83
2022/01/22 14:07:17;;;;;;;27.95;10.55;;;21.10;52.50;;;;;;4929094;28;92488;-86
2022/01/22 14:09:54;;;;;;;22.15;9.85;;;21.10;53.20;;;;;;4927987;28;92606;-84
2022/01/22 14:12:20;;;;;;;21.83;9.30;;;21.10;53.10;;;;;;4927962;28;96925;-85
2022/01/22 14:15:27;;;;;;;28.45;10.38;;;21.10;53.40;;;;;;4929112;28;93980;-84
2022/01/22 14:18:08;;;;;;;;;;;;;;;;;;;;;
2022/01/22 14:20:36;;;;;;;25.45;9.88;;;21.10;53.80;;;;;;4930388;28;92171;-82
2022/01/22 14:23:06;;;;;;;19.55;8.65;;;21.10;54.10;;;;;;4930074;28;93068;-87
2022/01/22 14:25:54;;;;;;;24.55;10.73;;;21.10;54.20;;;;;;4929184;28;95183;-88
2022/01/22 14:28:21;;;;;;;20.65;8.55;;;21.10;54.40;;;;;;4907462;28;93519;-84
2022/01/22 14:30:48;;;;;;;25.75;11.15;;;21.10;54.40;;;;;;4926575;28;91863;-84
2022/01/22 14:33:16;;;;;;;31.73;14.73;;;21.20;54.20;;;;;;4927203;28;93273;-83
2022/01/22 14:35:45;;;;;;;43.20;15.52;;;21.20;54.00;;;;;;4924713;28;93629;-87
2022/01/22 14:38:35;;;;;;;38.83;15.90;;;21.20;54.40;;;;;;4925958;28;93912;-86
2022/01/22 14:44:37;;;;;;;39.63;15.35;;;21.20;55.50;;;;;;4875637;28;95098;-82
2022/01/22 14:46:52;;;;;;;32.67;14.52;;;21.20;56.50;;;;;;4898913;28;93429;-82
2022/01/22 14:49:22;;;;;;;34.08;16.05;;;21.20;56.50;;;;;;4926930;28;92339;-82